Terminal Aerodrome Forecast
Issued by NWS Denver/Boulder, CO

Home | Current Version | Previous Version | Text Only | Print | Product List | Glossary On
Versions: 1 2 3 4 5 6 7 8 9 10 11 12 13 14 15 16 17 18 19 20 21 22 23 24 25 26 27 28 29 30 31 32 33 34 35 36 37 38 39 40 41 42 43 44 45 46 47 48 49 50
000
FTUS45 KBOU 241138
TAFDEN
TAF
KDEN 241138Z 2412/2518 01007KT P6SM SCT015 OVC025
      TEMPO 2412/2416 5SM -SN BR BKN015
     FM241700 04008KT P6SM SCT025 BKN035 OVC060
     FM242200 06008KT P6SM SCT025 BKN060
     FM250200 16008KT P6SM SCT025 BKN060
     FM250600 23009KT P6SM FEW070=

USA.gov is the U.S. government's official web portal to all federal, state and local government web resources and services.